Aérodrome :
LOGIN :

S'inscrire | Disclaimer

   EN    FR    IT 

 










Légende :    VFR   VFR Marginal   IFR   IFR Intensif   IFR Très Intensif
Visi : 
Plafond : 
>= 8 km
>= 3000ft
5 à 8 km
1000 à 3000 ft
1500m à 5 km
500 à 1000 ft
800 à 1500m
200 à 500 ft
< 800m
< 200 ft
Symboles :   Orages  Brouillard  Fortes neiges  Fortes précipitations  Vent > 20 kt
SIGMETs :   Divers  Orages  Givrage  Turbulence  Onde Orograph.  Cendres Volcan.







- Altitude de l'aérodrome : 220 ft
- Code IATA : CWL
- Voir les cartes d'approche


EGFF - Cardiff Rhoose

DERNIER METAR :
  • 220120Z AUTO 03005KT 010V070 9999 NCD 09/04 Q1031

METARs EXPIRÉS :
  • 220050Z AUTO VRB03KT 9999 NCD 09/04 Q1032
  • 220020Z AUTO 03007KT 9999 NCD 10/04 Q1032
  • 212350Z AUTO 02011KT 9999 NCD 11/04 Q1031
  • 212320Z AUTO 03009KT 9999 NCD 10/03 Q1031
  • 212250Z AUTO 03009KT 9999 NCD 11/03 Q1031

TAF AMD TAF EGFF
Valide du 22 à 00h jusqu'au 23 à 00h UTC


220001Z 2200/2224 03010KT CAVOK
BECMG 2200/2203 33006KT
BECMG 2209/2212 20010KT
BECMG 2217/2220 VRB05KT
ATIS : +44 1446 729 319
Pas de NOTAMs connus pour ce terrain.



MET'MAP, la Météo Aéronautique d'un coup d'oeil ! - Copyright ORBIFLY Décembre 2007 - Disclaimer

ORBIFLY MET'MAP TEAM :

Programmation & Développement : Alexandra Zaïnal
Conception & Développement : Baudouin d'Aumeries
Co-Programmation & Développement : Marc-Olivier Méhu
Soutien technique & logistique : Manuel Goepfert

Contact : metmap@orbifly.com




SOURCES & CREDITS :

   NOAA